sensor_id;sensor_type;location;lat;lon;timestamp;temperature;humidity
27162;DHT22;54464;50.558;9.704;2023-04-01T00:01:11;7.70;99.90
27162;DHT22;54464;50.558;9.704;2023-04-01T00:03:39;7.70;99.90
27162;DHT22;54464;50.558;9.704;2023-04-01T00:06:05;7.70;99.90
27162;DHT22;54464;50.558;9.704;2023-04-01T00:08:30;7.70;99.90
27162;DHT22;54464;50.558;9.704;2023-04-01T00:10:57;7.70;99.90
27162;DHT22;54464;50.558;9.704;2023-04-01T00:13:23;7.70;99.90
27162;DHT22;54464;50.558;9.704;2023-04-01T00:15:50;7.70;99.90
27162;DHT22;54464;50.558;9.704;2023-04-01T00:18:16;7.70;99.90
27162;DHT22;54464;50.558;9.704;2023-04-01T00:20:46;7.70;99.90
27162;DHT22;54464;50.558;9.704;2023-04-01T00:23:13;7.60;99.90
27162;DHT22;54464;50.558;9.704;2023-04-01T00:25:39;7.60;99.90
27162;DHT22;54464;50.558;9.704;2023-04-01T00:28:04;7.60;99.90
27162;DHT22;54464;50.558;9.704;2023-04-01T00:30:30;7.60;99.90
27162;DHT22;54464;50.558;9.704;2023-04-01T00:32:55;7.60;99.90
27162;DHT22;54464;50.558;9.704;2023-04-01T00:35:21;7.60;99.90
27162;DHT22;54464;50.558;9.704;2023-04-01T00:37:47;7.60;99.90
27162;DHT22;54464;50.558;9.704;2023-04-01T00:40:30;7.60;99.90
27162;DHT22;54464;50.558;9.704;2023-04-01T00:42:57;7.60;99.90
27162;DHT22;54464;50.558;9.704;2023-04-01T00:47:54;7.60;99.90
27162;DHT22;54464;50.558;9.704;2023-04-01T00:50:22;7.60;99.90
27162;DHT22;54464;50.558;9.704;2023-04-01T00:52:48;7.60;99.90
27162;DHT22;54464;50.558;9.704;2023-04-01T00:55:14;7.50;99.90
27162;DHT22;54464;50.558;9.704;2023-04-01T00:57:43;7.50;99.90
27162;DHT22;54464;50.558;9.704;2023-04-01T01:00:11;7.50;99.90
27162;DHT22;54464;50.558;9.704;2023-04-01T01:02:41;7.50;99.90
27162;DHT22;54464;50.558;9.704;2023-04-01T01:05:11;7.60;99.90
27162;DHT22;54464;50.558;9.704;2023-04-01T01:08:03;7.50;99.90
27162;DHT22;54464;50.558;9.704;2023-04-01T01:10:33;7.50;99.90
27162;DHT22;54464;50.558;9.704;2023-04-01T01:13:34;7.50;99.90
27162;DHT22;54464;50.558;9.704;2023-04-01T01:16:18;7.50;99.90
27162;DHT22;54464;50.558;9.704;2023-04-01T01:21:34;7.50;99.90
27162;DHT22;54464;50.558;9.704;2023-04-01T01:24:25;7.50;99.90
27162;DHT22;54464;50.558;9.704;2023-04-01T01:27:09;7.50;99.90
27162;DHT22;54464;50.558;9.704;2023-04-01T01:35:48;7.50;99.90
27162;DHT22;54464;50.558;9.704;2023-04-01T01:38:17;7.50;99.90
27162;DHT22;54464;50.558;9.704;2023-04-01T01:40:48;7.50;99.90
27162;DHT22;54464;50.558;9.704;2023-04-01T01:43:21;7.50;99.90
27162;DHT22;54464;50.558;9.704;2023-04-01T01:45:52;7.50;99.90
27162;DHT22;54464;50.558;9.704;2023-04-01T01:48:20;7.50;99.90
27162;DHT22;54464;50.558;9.704;2023-04-01T01:50:46;7.50;99.90
27162;DHT22;54464;50.558;9.704;2023-04-01T01:53:13;7.50;99.90
27162;DHT22;54464;50.558;9.704;2023-04-01T01:55:42;7.50;99.90
27162;DHT22;54464;50.558;9.704;2023-04-01T01:58:20;7.50;99.90
27162;DHT22;54464;50.558;9.704;2023-04-01T02:00:54;7.50;99.90
27162;DHT22;54464;50.558;9.704;2023-04-01T02:03:23;7.50;99.90
27162;DHT22;54464;50.558;9.704;2023-04-01T02:05:51;7.50;99.90
27162;DHT22;54464;50.558;9.704;2023-04-01T02:08:21;7.50;99.90
27162;DHT22;54464;50.558;9.704;2023-04-01T02:11:05;7.50;99.90
27162;DHT22;54464;50.558;9.704;2023-04-01T02:16:29;7.40;99.90
27162;DHT22;54464;50.558;9.704;2023-04-01T02:18:58;7.40;99.90
27162;DHT22;54464;50.558;9.704;2023-04-01T02:21:27;7.40;99.90
27162;DHT22;54464;50.558;9.704;2023-04-01T02:23:56;7.40;99.90
27162;DHT22;54464;50.558;9.704;2023-04-01T02:26:24;7.40;99.90
27162;DHT22;54464;50.558;9.704;2023-04-01T02:28:51;7.40;99.90
27162;DHT22;54464;50.558;9.704;2023-04-01T02:31:18;7.40;99.90
27162;DHT22;54464;50.558;9.704;2023-04-01T02:33:44;7.40;99.90
27162;DHT22;54464;50.558;9.704;2023-04-01T02:36:13;7.40;99.90
27162;DHT22;54464;50.558;9.704;2023-04-01T02:38:40;7.40;99.90
27162;DHT22;54464;50.558;9.704;2023-04-01T02:41:06;7.40;99.90
27162;DHT22;54464;50.558;9.704;2023-04-01T02:43:32;7.40;99.90
27162;DHT22;54464;50.558;9.704;2023-04-01T02:45:58;7.40;99.90
27162;DHT22;54464;50.558;9.704;2023-04-01T02:48:23;7.40;99.90
27162;DHT22;54464;50.558;9.704;2023-04-01T02:50:50;7.30;99.90
27162;DHT22;54464;50.558;9.704;2023-04-01T02:53:16;7.30;99.90
27162;DHT22;54464;50.558;9.704;2023-04-01T02:55:42;7.30;99.90
27162;DHT22;54464;50.558;9.704;2023-04-01T02:58:07;7.30;99.90
27162;DHT22;54464;50.558;9.704;2023-04-01T03:00:33;7.30;99.90
27162;DHT22;54464;50.558;9.704;2023-04-01T03:02:59;7.30;99.90
27162;DHT22;54464;50.558;9.704;2023-04-01T03:05:25;7.30;99.90
27162;DHT22;54464;50.558;9.704;2023-04-01T03:07:51;7.30;99.90
27162;DHT22;54464;50.558;9.704;2023-04-01T03:10:16;7.30;99.90
27162;DHT22;54464;50.558;9.704;2023-04-01T03:12:42;7.30;99.90
27162;DHT22;54464;50.558;9.704;2023-04-01T03:15:10;7.30;99.90
27162;DHT22;54464;50.558;9.704;2023-04-01T03:17:38;7.30;99.90
27162;DHT22;54464;50.558;9.704;2023-04-01T03:20:03;7.30;99.90
27162;DHT22;54464;50.558;9.704;2023-04-01T03:22:30;7.30;99.90
27162;DHT22;54464;50.558;9.704;2023-04-01T03:24:56;7.30;99.90
27162;DHT22;54464;50.558;9.704;2023-04-01T03:27:21;7.30;99.90
27162;DHT22;54464;50.558;9.704;2023-04-01T03:29:47;7.20;99.90
27162;DHT22;54464;50.558;9.704;2023-04-01T03:32:12;7.30;99.90
27162;DHT22;54464;50.558;9.704;2023-04-01T03:34:38;7.20;99.90
27162;DHT22;54464;50.558;9.704;2023-04-01T03:37:03;7.30;99.90
27162;DHT22;54464;50.558;9.704;2023-04-01T03:39:30;7.20;99.90
27162;DHT22;54464;50.558;9.704;2023-04-01T03:41:56;7.20;99.90
27162;DHT22;54464;50.558;9.704;2023-04-01T03:44:21;7.20;99.90
27162;DHT22;54464;50.558;9.704;2023-04-01T03:46:47;7.20;99.90
27162;DHT22;54464;50.558;9.704;2023-04-01T03:49:12;7.20;99.90
27162;DHT22;54464;50.558;9.704;2023-04-01T03:51:42;7.20;99.90
27162;DHT22;54464;50.558;9.704;2023-04-01T03:54:09;7.20;99.90
27162;DHT22;54464;50.558;9.704;2023-04-01T03:56:35;7.20;99.90
27162;DHT22;54464;50.558;9.704;2023-04-01T03:59:05;7.20;99.90
27162;DHT22;54464;50.558;9.704;2023-04-01T04:01:31;7.20;99.90
27162;DHT22;54464;50.558;9.704;2023-04-01T04:03:57;7.20;99.90
27162;DHT22;54464;50.558;9.704;2023-04-01T04:06:23;7.20;99.90
27162;DHT22;54464;50.558;9.704;2023-04-01T04:08:49;7.20;99.90
27162;DHT22;54464;50.558;9.704;2023-04-01T04:11:16;7.20;99.90
27162;DHT22;54464;50.558;9.704;2023-04-01T04:13:42;7.20;99.90
27162;DHT22;54464;50.558;9.704;2023-04-01T04:16:08;7.20;99.90
27162;DHT22;54464;50.558;9.704;2023-04-01T04:18:35;7.20;99.90
27162;DHT22;54464;50.558;9.704;2023-04-01T04:21:01;7.20;99.90
27162;DHT22;54464;50.558;9.704;2023-04-01T04:23:27;7.20;99.90
27162;DHT22;54464;50.558;9.704;2023-04-01T04:26:04;7.20;99.90
27162;DHT22;54464;50.558;9.704;2023-04-01T04:28:30;7.20;99.90
27162;DHT22;54464;50.558;9.704;2023-04-01T04:30:56;7.20;99.90
27162;DHT22;54464;50.558;9.704;2023-04-01T04:33:22;7.20;99.90
27162;DHT22;54464;50.558;9.704;2023-04-01T04:35:48;7.20;99.90
27162;DHT22;54464;50.558;9.704;2023-04-01T04:38:14;7.20;99.90
27162;DHT22;54464;50.558;9.704;2023-04-01T04:40:40;7.20;99.90
27162;DHT22;54464;50.558;9.704;2023-04-01T04:43:07;7.20;99.90
27162;DHT22;54464;50.558;9.704;2023-04-01T04:45:35;7.20;99.90
27162;DHT22;54464;50.558;9.704;2023-04-01T04:48:00;7.20;99.90
27162;DHT22;54464;50.558;9.704;2023-04-01T04:50:26;7.20;99.90
27162;DHT22;54464;50.558;9.704;2023-04-01T04:52:51;7.20;99.90
27162;DHT22;54464;50.558;9.704;2023-04-01T04:55:17;7.20;99.90
27162;DHT22;54464;50.558;9.704;2023-04-01T04:57:43;7.20;99.90
27162;DHT22;54464;50.558;9.704;2023-04-01T05:00:11;7.20;99.90
27162;DHT22;54464;50.558;9.704;2023-04-01T05:02:37;7.20;99.90
27162;DHT22;54464;50.558;9.704;2023-04-01T05:05:03;7.20;99.90
27162;DHT22;54464;50.558;9.704;2023-04-01T05:07:29;7.20;99.90
27162;DHT22;54464;50.558;9.704;2023-04-01T05:09:55;7.20;99.90
27162;DHT22;54464;50.558;9.704;2023-04-01T05:12:21;7.20;99.90
27162;DHT22;54464;50.558;9.704;2023-04-01T05:14:46;7.20;99.90
27162;DHT22;54464;50.558;9.704;2023-04-01T05:17:13;7.20;99.90
27162;DHT22;54464;50.558;9.704;2023-04-01T05:19:39;7.20;99.90
27162;DHT22;54464;50.558;9.704;2023-04-01T05:22:06;7.20;99.90
27162;DHT22;54464;50.558;9.704;2023-04-01T05:24:32;7.20;99.90
27162;DHT22;54464;50.558;9.704;2023-04-01T05:26:58;7.20;99.90
27162;DHT22;54464;50.558;9.704;2023-04-01T05:29:25;7.20;99.90
27162;DHT22;54464;50.558;9.704;2023-04-01T05:31:51;7.20;99.90
27162;DHT22;54464;50.558;9.704;2023-04-01T05:34:16;7.20;99.90
27162;DHT22;54464;50.558;9.704;2023-04-01T05:36:42;7.20;99.90
27162;DHT22;54464;50.558;9.704;2023-04-01T05:39:09;7.20;99.90
27162;DHT22;54464;50.558;9.704;2023-04-01T05:41:35;7.20;99.90
27162;DHT22;54464;50.558;9.704;2023-04-01T05:44:01;7.20;99.90
27162;DHT22;54464;50.558;9.704;2023-04-01T05:46:27;7.30;99.90
27162;DHT22;54464;50.558;9.704;2023-04-01T05:48:53;7.30;99.90
27162;DHT22;54464;50.558;9.704;2023-04-01T05:51:18;7.30;99.90
27162;DHT22;54464;50.558;9.704;2023-04-01T05:53:44;7.20;99.90
27162;DHT22;54464;50.558;9.704;2023-04-01T05:56:10;7.20;99.90
27162;DHT22;54464;50.558;9.704;2023-04-01T05:58:36;7.20;99.90
27162;DHT22;54464;50.558;9.704;2023-04-01T06:01:11;7.20;99.90
27162;DHT22;54464;50.558;9.704;2023-04-01T06:03:37;7.30;99.90
27162;DHT22;54464;50.558;9.704;2023-04-01T06:06:03;7.20;99.90
27162;DHT22;54464;50.558;9.704;2023-04-01T06:08:30;7.30;99.90
27162;DHT22;54464;50.558;9.704;2023-04-01T06:13:54;7.20;99.90
27162;DHT22;54464;50.558;9.704;2023-04-01T06:19:08;7.30;99.90
27162;DHT22;54464;50.558;9.704;2023-04-01T06:21:53;7.20;99.90
27162;DHT22;54464;50.558;9.704;2023-04-01T06:27:51;7.30;99.90
27162;DHT22;54464;50.558;9.704;2023-04-01T06:33:28;7.30;99.90
27162;DHT22;54464;50.558;9.704;2023-04-01T06:44:17;7.30;99.90
27162;DHT22;54464;50.558;9.704;2023-04-01T06:55:02;7.30;99.90
27162;DHT22;54464;50.558;9.704;2023-04-01T06:57:53;7.30;99.90
27162;DHT22;54464;50.558;9.704;2023-04-01T07:00:43;7.30;99.90
27162;DHT22;54464;50.558;9.704;2023-04-01T07:06:03;7.30;99.90
27162;DHT22;54464;50.558;9.704;2023-04-01T07:08:32;7.30;99.90
27162;DHT22;54464;50.558;9.704;2023-04-01T07:11:02;7.30;99.90
27162;DHT22;54464;50.558;9.704;2023-04-01T07:16:41;7.40;99.90
27162;DHT22;54464;50.558;9.704;2023-04-01T07:19:33;7.40;99.90
27162;DHT22;54464;50.558;9.704;2023-04-01T07:22:05;7.40;99.90
27162;DHT22;54464;50.558;9.704;2023-04-01T07:24:39;7.40;99.90
27162;DHT22;54464;50.558;9.704;2023-04-01T07:27:10;7.40;99.90
27162;DHT22;54464;50.558;9.704;2023-04-01T07:29:36;7.40;99.90
27162;DHT22;54464;50.558;9.704;2023-04-01T07:40:21;7.50;99.90
27162;DHT22;54464;50.558;9.704;2023-04-01T07:43:39;7.50;99.90
27162;DHT22;54464;50.558;9.704;2023-04-01T07:49:16;7.50;99.90
27162;DHT22;54464;50.558;9.704;2023-04-01T07:51:51;7.50;99.90
27162;DHT22;54464;50.558;9.704;2023-04-01T07:54:32;7.50;99.90
27162;DHT22;54464;50.558;9.704;2023-04-01T07:59:48;7.60;99.90
27162;DHT22;54464;50.558;9.704;2023-04-01T08:02:43;7.60;99.90
27162;DHT22;54464;50.558;9.704;2023-04-01T08:05:27;7.60;99.90
27162;DHT22;54464;50.558;9.704;2023-04-01T08:08:49;7.60;99.90
27162;DHT22;54464;50.558;9.704;2023-04-01T08:10:52;7.60;99.90
27162;DHT22;54464;50.558;9.704;2023-04-01T08:13:58;7.60;99.90
27162;DHT22;54464;50.558;9.704;2023-04-01T08:16:46;7.70;99.90
27162;DHT22;54464;50.558;9.704;2023-04-01T08:21:54;7.70;99.90
27162;DHT22;54464;50.558;9.704;2023-04-01T08:24:42;7.70;99.90
27162;DHT22;54464;50.558;9.704;2023-04-01T08:30:26;7.70;99.90
27162;DHT22;54464;50.558;9.704;2023-04-01T08:32:57;7.70;99.90
27162;DHT22;54464;50.558;9.704;2023-04-01T08:35:46;7.70;99.90
27162;DHT22;54464;50.558;9.704;2023-04-01T08:38:17;7.80;99.90
27162;DHT22;54464;50.558;9.704;2023-04-01T08:40:53;7.80;99.90
27162;DHT22;54464;50.558;9.704;2023-04-01T08:46:46;7.80;99.90
27162;DHT22;54464;50.558;9.704;2023-04-01T08:49:48;7.90;99.90
27162;DHT22;54464;50.558;9.704;2023-04-01T09:03:23;7.90;99.90
27162;DHT22;54464;50.558;9.704;2023-04-01T09:25:46;8.10;99.90
27162;DHT22;54464;50.558;9.704;2023-04-01T09:28:30;8.10;99.90
27162;DHT22;54464;50.558;9.704;2023-04-01T09:39:30;8.10;99.90
27162;DHT22;54464;50.558;9.704;2023-04-01T09:44:35;8.20;99.90
27162;DHT22;54464;50.558;9.704;2023-04-01T09:47:26;8.20;99.90
27162;DHT22;54464;50.558;9.704;2023-04-01T10:07:33;8.20;99.90
27162;DHT22;54464;50.558;9.704;2023-04-01T10:10:18;8.20;99.90
27162;DHT22;54464;50.558;9.704;2023-04-01T10:15:41;8.30;99.90
27162;DHT22;54464;50.558;9.704;2023-04-01T10:21:28;8.50;99.90
27162;DHT22;54464;50.558;9.704;2023-04-01T10:24:24;8.50;99.90
27162;DHT22;54464;50.558;9.704;2023-04-01T10:41:23;8.40;99.90
27162;DHT22;54464;50.558;9.704;2023-04-01T11:22:55;8.70;99.90
27162;DHT22;54464;50.558;9.704;2023-04-01T11:34:39;8.80;99.90
27162;DHT22;54464;50.558;9.704;2023-04-01T11:40:20;8.80;99.90
27162;DHT22;54464;50.558;9.704;2023-04-01T11:43:09;8.80;99.90
27162;DHT22;54464;50.558;9.704;2023-04-01T11:45:49;8.80;99.90
27162;DHT22;54464;50.558;9.704;2023-04-01T11:48:37;8.80;99.90
27162;DHT22;54464;50.558;9.704;2023-04-01T11:51:19;8.80;99.90
27162;DHT22;54464;50.558;9.704;2023-04-01T11:53:53;8.80;99.90
27162;DHT22;54464;50.558;9.704;2023-04-01T11:56:53;8.90;99.90
27162;DHT22;54464;50.558;9.704;2023-04-01T12:13:19;9.00;99.90
27162;DHT22;54464;50.558;9.704;2023-04-01T12:16:29;9.10;99.90
27162;DHT22;54464;50.558;9.704;2023-04-01T12:27:45;9.00;99.90
27162;DHT22;54464;50.558;9.704;2023-04-01T12:30:39;9.00;99.90
27162;DHT22;54464;50.558;9.704;2023-04-01T12:33:32;9.10;99.90
27162;DHT22;54464;50.558;9.704;2023-04-01T12:36:09;9.20;99.90
27162;DHT22;54464;50.558;9.704;2023-04-01T12:38:59;9.10;99.90
27162;DHT22;54464;50.558;9.704;2023-04-01T12:44:49;9.10;99.90
27162;DHT22;54464;50.558;9.704;2023-04-01T12:47:48;9.20;99.90
27162;DHT22;54464;50.558;9.704;2023-04-01T12:53:06;9.20;99.90
27162;DHT22;54464;50.558;9.704;2023-04-01T12:55:44;9.20;99.90
27162;DHT22;54464;50.558;9.704;2023-04-01T12:58:45;9.20;99.90
27162;DHT22;54464;50.558;9.704;2023-04-01T13:07:14;9.10;99.90
27162;DHT22;54464;50.558;9.704;2023-04-01T13:18:33;9.10;99.90
27162;DHT22;54464;50.558;9.704;2023-04-01T13:21:16;9.10;99.90
27162;DHT22;54464;50.558;9.704;2023-04-01T13:26:53;9.10;99.90
27162;DHT22;54464;50.558;9.704;2023-04-01T13:29:26;9.10;99.90
27162;DHT22;54464;50.558;9.704;2023-04-01T13:32:00;9.10;99.90
27162;DHT22;54464;50.558;9.704;2023-04-01T13:34:52;9.00;99.90
27162;DHT22;54464;50.558;9.704;2023-04-01T13:39:57;9.00;99.90
27162;DHT22;54464;50.558;9.704;2023-04-01T13:42:38;9.00;99.90
27162;DHT22;54464;50.558;9.704;2023-04-01T13:45:24;9.10;99.90
27162;DHT22;54464;50.558;9.704;2023-04-01T13:54:41;9.10;99.90
27162;DHT22;54464;50.558;9.704;2023-04-01T13:57:06;9.10;99.90
27162;DHT22;54464;50.558;9.704;2023-04-01T14:02:55;9.00;99.90
27162;DHT22;54464;50.558;9.704;2023-04-01T14:13:56;9.00;99.90
27162;DHT22;54464;50.558;9.704;2023-04-01T14:16:47;9.00;99.90
27162;DHT22;54464;50.558;9.704;2023-04-01T14:22:23;9.00;99.90
27162;DHT22;54464;50.558;9.704;2023-04-01T14:44:55;9.00;99.90
27162;DHT22;54464;50.558;9.704;2023-04-01T14:47:34;9.00;99.90
27162;DHT22;54464;50.558;9.704;2023-04-01T14:50:26;9.00;99.90
27162;DHT22;54464;50.558;9.704;2023-04-01T14:55:31;9.00;99.90
27162;DHT22;54464;50.558;9.704;2023-04-01T14:58:08;9.10;99.90
27162;DHT22;54464;50.558;9.704;2023-04-01T15:08:58;9.10;99.90
27162;DHT22;54464;50.558;9.704;2023-04-01T15:11:31;9.10;99.90
27162;DHT22;54464;50.558;9.704;2023-04-01T15:14:24;9.00;99.90
27162;DHT22;54464;50.558;9.704;2023-04-01T15:25:33;9.00;99.90
27162;DHT22;54464;50.558;9.704;2023-04-01T15:28:35;9.00;99.90
27162;DHT22;54464;50.558;9.704;2023-04-01T15:31:10;9.00;99.90
27162;DHT22;54464;50.558;9.704;2023-04-01T15:37:23;9.00;99.90
27162;DHT22;54464;50.558;9.704;2023-04-01T15:42:51;9.20;99.90
27162;DHT22;54464;50.558;9.704;2023-04-01T15:45:30;9.20;99.90
27162;DHT22;54464;50.558;9.704;2023-04-01T15:51:16;9.30;99.90
27162;DHT22;54464;50.558;9.704;2023-04-01T15:54:06;9.30;99.90
27162;DHT22;54464;50.558;9.704;2023-04-01T15:56:44;9.40;99.90
27162;DHT22;54464;50.558;9.704;2023-04-01T16:00:06;9.40;99.90
27162;DHT22;54464;50.558;9.704;2023-04-01T16:02:21;9.40;99.90
27162;DHT22;54464;50.558;9.704;2023-04-01T16:16:07;9.40;99.90
27162;DHT22;54464;50.558;9.704;2023-04-01T16:22:16;9.40;99.90
27162;DHT22;54464;50.558;9.704;2023-04-01T16:36:35;9.30;99.90
27162;DHT22;54464;50.558;9.704;2023-04-01T16:39:06;9.30;99.90
27162;DHT22;54464;50.558;9.704;2023-04-01T16:41:37;9.30;99.90
27162;DHT22;54464;50.558;9.704;2023-04-01T16:44:24;9.30;99.90
27162;DHT22;54464;50.558;9.704;2023-04-01T16:46:53;9.30;99.90
27162;DHT22;54464;50.558;9.704;2023-04-01T16:49:29;9.30;99.90
27162;DHT22;54464;50.558;9.704;2023-04-01T16:54:35;9.30;99.90
27162;DHT22;54464;50.558;9.704;2023-04-01T16:59:38;9.30;99.90
27162;DHT22;54464;50.558;9.704;2023-04-01T17:04:43;9.30;99.90
27162;DHT22;54464;50.558;9.704;2023-04-01T17:10:49;9.30;99.90
27162;DHT22;54464;50.558;9.704;2023-04-01T17:16:19;9.20;99.90
27162;DHT22;54464;50.558;9.704;2023-04-01T17:21:45;9.20;99.90
27162;DHT22;54464;50.558;9.704;2023-04-01T17:30:13;9.20;99.90
27162;DHT22;54464;50.558;9.704;2023-04-01T17:35:38;9.20;99.90
27162;DHT22;54464;50.558;9.704;2023-04-01T17:43:47;9.20;99.90
27162;DHT22;54464;50.558;9.704;2023-04-01T17:46:37;9.10;99.90
27162;DHT22;54464;50.558;9.704;2023-04-01T17:51:45;9.10;99.90
27162;DHT22;54464;50.558;9.704;2023-04-01T17:57:24;9.00;99.90
27162;DHT22;54464;50.558;9.704;2023-04-01T18:00:16;8.90;99.90
27162;DHT22;54464;50.558;9.704;2023-04-01T18:05:41;8.90;99.90
27162;DHT22;54464;50.558;9.704;2023-04-01T18:16:57;8.90;99.90
27162;DHT22;54464;50.558;9.704;2023-04-01T18:27:50;8.80;99.90
27162;DHT22;54464;50.558;9.704;2023-04-01T18:30:28;8.80;99.90
27162;DHT22;54464;50.558;9.704;2023-04-01T18:33:17;8.70;99.90
27162;DHT22;54464;50.558;9.704;2023-04-01T18:41:35;8.60;99.90
27162;DHT22;54464;50.558;9.704;2023-04-01T18:49:16;8.40;99.90
27162;DHT22;54464;50.558;9.704;2023-04-01T18:51:52;8.40;99.90
27162;DHT22;54464;50.558;9.704;2023-04-01T18:54:40;8.40;99.90
27162;DHT22;54464;50.558;9.704;2023-04-01T18:57:19;8.40;99.90
27162;DHT22;54464;50.558;9.704;2023-04-01T18:59:56;8.30;99.90
27162;DHT22;54464;50.558;9.704;2023-04-01T19:02:48;8.30;99.90
27162;DHT22;54464;50.558;9.704;2023-04-01T19:07:49;8.30;99.90
27162;DHT22;54464;50.558;9.704;2023-04-01T19:18:27;8.20;99.90
27162;DHT22;54464;50.558;9.704;2023-04-01T19:20:59;8.20;99.90
27162;DHT22;54464;50.558;9.704;2023-04-01T19:24:06;8.10;99.90
27162;DHT22;54464;50.558;9.704;2023-04-01T19:34:57;8.10;99.90
27162;DHT22;54464;50.558;9.704;2023-04-01T19:37:45;8.10;99.90
27162;DHT22;54464;50.558;9.704;2023-04-01T19:45:49;8.10;99.90
27162;DHT22;54464;50.558;9.704;2023-04-01T19:51:34;8.00;99.90
27162;DHT22;54464;50.558;9.704;2023-04-01T19:59:47;8.00;99.90
27162;DHT22;54464;50.558;9.704;2023-04-01T20:04:56;8.00;99.90
27162;DHT22;54464;50.558;9.704;2023-04-01T20:07:34;8.00;99.90
27162;DHT22;54464;50.558;9.704;2023-04-01T20:10:17;8.00;99.90
27162;DHT22;54464;50.558;9.704;2023-04-01T20:13:08;8.00;99.90
27162;DHT22;54464;50.558;9.704;2023-04-01T20:15:45;8.00;99.90
27162;DHT22;54464;50.558;9.704;2023-04-01T20:26:43;7.90;99.90
27162;DHT22;54464;50.558;9.704;2023-04-01T20:31:43;7.90;99.90
27162;DHT22;54464;50.558;9.704;2023-04-01T20:44:52;7.90;99.90
27162;DHT22;54464;50.558;9.704;2023-04-01T20:50:51;7.90;99.90
27162;DHT22;54464;50.558;9.704;2023-04-01T20:54:10;7.90;99.90
27162;DHT22;54464;50.558;9.704;2023-04-01T20:57:06;7.90;99.90
27162;DHT22;54464;50.558;9.704;2023-04-01T21:02:35;7.90;99.90
27162;DHT22;54464;50.558;9.704;2023-04-01T21:05:26;7.90;99.90
27162;DHT22;54464;50.558;9.704;2023-04-01T21:08:21;7.90;99.90
27162;DHT22;54464;50.558;9.704;2023-04-01T21:22:00;7.90;99.90
27162;DHT22;54464;50.558;9.704;2023-04-01T21:30:40;7.90;99.90
27162;DHT22;54464;50.558;9.704;2023-04-01T21:35:59;7.90;99.90
27162;DHT22;54464;50.558;9.704;2023-04-01T21:38:54;7.80;99.90
27162;DHT22;54464;50.558;9.704;2023-04-01T21:49:49;7.90;99.90
27162;DHT22;54464;50.558;9.704;2023-04-01T22:01:37;7.90;99.90
27162;DHT22;54464;50.558;9.704;2023-04-01T22:06:45;7.90;99.90
27162;DHT22;54464;50.558;9.704;2023-04-01T22:09:15;7.90;99.90
27162;DHT22;54464;50.558;9.704;2023-04-01T22:23:12;8.00;99.90
27162;DHT22;54464;50.558;9.704;2023-04-01T22:28:25;8.00;99.90
27162;DHT22;54464;50.558;9.704;2023-04-01T22:30:58;7.90;99.90
27162;DHT22;54464;50.558;9.704;2023-04-01T22:39:02;8.00;99.90
27162;DHT22;54464;50.558;9.704;2023-04-01T22:43:57;8.00;99.90
27162;DHT22;54464;50.558;9.704;2023-04-01T22:52:02;8.00;99.90
27162;DHT22;54464;50.558;9.704;2023-04-01T22:54:32;8.00;99.90
27162;DHT22;54464;50.558;9.704;2023-04-01T22:59:46;8.00;99.90
27162;DHT22;54464;50.558;9.704;2023-04-01T23:02:18;8.00;99.90
27162;DHT22;54464;50.558;9.704;2023-04-01T23:04:52;8.00;99.90
27162;DHT22;54464;50.558;9.704;2023-04-01T23:10:05;8.00;99.90
27162;DHT22;54464;50.558;9.704;2023-04-01T23:12:37;8.00;99.90
27162;DHT22;54464;50.558;9.704;2023-04-01T23:15:04;8.00;99.90
27162;DHT22;54464;50.558;9.704;2023-04-01T23:17:49;8.00;99.90
27162;DHT22;54464;50.558;9.704;2023-04-01T23:20:47;8.00;99.90
27162;DHT22;54464;50.558;9.704;2023-04-01T23:28:50;8.00;99.90
27162;DHT22;54464;50.558;9.704;2023-04-01T23:31:44;8.00;99.90
27162;DHT22;54464;50.558;9.704;2023-04-01T23:36:46;8.00;99.90
27162;DHT22;54464;50.558;9.704;2023-04-01T23:39:41;8.00;99.90
27162;DHT22;54464;50.558;9.704;2023-04-01T23:42:21;8.00;99.90
27162;DHT22;54464;50.558;9.704;2023-04-01T23:44:50;8.00;99.90
27162;DHT22;54464;50.558;9.704;2023-04-01T23:47:39;8.00;99.90
27162;DHT22;54464;50.558;9.704;2023-04-01T23:50:21;8.10;99.90
27162;DHT22;54464;50.558;9.704;2023-04-01T23:52:51;8.10;99.90
